sensor_id;sensor_type;location;lat;lon;timestamp;P1;durP1;ratioP1;P2;durP2;ratioP2
3571;SDS011;7958;53.024;12.970;2022-07-29T00:01:49;9.00;;;3.10;;
3571;SDS011;7958;53.024;12.970;2022-07-29T00:04:17;5.10;;;3.23;;
3571;SDS011;7958;53.024;12.970;2022-07-29T00:06:43;4.57;;;2.97;;
3571;SDS011;7958;53.024;12.970;2022-07-29T00:09:10;4.30;;;3.30;;
3571;SDS011;7958;53.024;12.970;2022-07-29T00:11:36;5.63;;;3.33;;
3571;SDS011;7958;53.024;12.970;2022-07-29T00:14:05;5.33;;;3.00;;
3571;SDS011;7958;53.024;12.970;2022-07-29T00:16:31;7.83;;;3.50;;
3571;SDS011;7958;53.024;12.970;2022-07-29T00:19:01;5.80;;;3.40;;
3571;SDS011;7958;53.024;12.970;2022-07-29T00:21:28;3.63;;;2.63;;
3571;SDS011;7958;53.024;12.970;2022-07-29T00:23:54;5.53;;;3.30;;
3571;SDS011;7958;53.024;12.970;2022-07-29T00:26:21;8.07;;;3.50;;
3571;SDS011;7958;53.024;12.970;2022-07-29T00:28:47;5.33;;;3.53;;
3571;SDS011;7958;53.024;12.970;2022-07-29T00:31:15;3.93;;;3.17;;
3571;SDS011;7958;53.024;12.970;2022-07-29T00:33:41;21.10;;;3.53;;
3571;SDS011;7958;53.024;12.970;2022-07-29T00:36:08;3.20;;;2.90;;
3571;SDS011;7958;53.024;12.970;2022-07-29T00:38:33;4.20;;;2.83;;
3571;SDS011;7958;53.024;12.970;2022-07-29T00:41:00;6.20;;;3.67;;
3571;SDS011;7958;53.024;12.970;2022-07-29T00:43:26;3.50;;;2.80;;
3571;SDS011;7958;53.024;12.970;2022-07-29T00:45:52;6.87;;;3.07;;
3571;SDS011;7958;53.024;12.970;2022-07-29T00:48:22;3.83;;;3.03;;
3571;SDS011;7958;53.024;12.970;2022-07-29T00:50:48;10.50;;;3.30;;
3571;SDS011;7958;53.024;12.970;2022-07-29T00:53:18;7.37;;;3.27;;
3571;SDS011;7958;53.024;12.970;2022-07-29T00:55:45;6.43;;;3.43;;
3571;SDS011;7958;53.024;12.970;2022-07-29T00:58:14;7.57;;;3.17;;
3571;SDS011;7958;53.024;12.970;2022-07-29T01:00:41;4.23;;;2.80;;
3571;SDS011;7958;53.024;12.970;2022-07-29T01:03:08;7.60;;;3.67;;
3571;SDS011;7958;53.024;12.970;2022-07-29T01:05:35;6.10;;;3.03;;
3571;SDS011;7958;53.024;12.970;2022-07-29T01:08:02;4.30;;;3.40;;
3571;SDS011;7958;53.024;12.970;2022-07-29T01:10:29;6.83;;;3.37;;
3571;SDS011;7958;53.024;12.970;2022-07-29T01:12:56;6.63;;;2.90;;
3571;SDS011;7958;53.024;12.970;2022-07-29T01:15:24;5.57;;;3.20;;
3571;SDS011;7958;53.024;12.970;2022-07-29T01:17:52;3.50;;;2.70;;
3571;SDS011;7958;53.024;12.970;2022-07-29T01:20:26;4.10;;;3.50;;
3571;SDS011;7958;53.024;12.970;2022-07-29T01:23:06;6.13;;;2.60;;
3571;SDS011;7958;53.024;12.970;2022-07-29T01:25:48;4.13;;;3.40;;
3571;SDS011;7958;53.024;12.970;2022-07-29T01:28:33;3.83;;;3.00;;
3571;SDS011;7958;53.024;12.970;2022-07-29T01:31:06;3.90;;;3.13;;
3571;SDS011;7958;53.024;12.970;2022-07-29T01:33:35;5.20;;;3.57;;
3571;SDS011;7958;53.024;12.970;2022-07-29T01:36:17;4.13;;;3.20;;
3571;SDS011;7958;53.024;12.970;2022-07-29T01:38:49;4.27;;;3.10;;
3571;SDS011;7958;53.024;12.970;2022-07-29T01:41:20;3.40;;;3.07;;
3571;SDS011;7958;53.024;12.970;2022-07-29T01:43:51;4.83;;;3.10;;
3571;SDS011;7958;53.024;12.970;2022-07-29T01:46:24;5.57;;;3.00;;
3571;SDS011;7958;53.024;12.970;2022-07-29T01:48:57;4.70;;;2.90;;
3571;SDS011;7958;53.024;12.970;2022-07-29T01:51:29;3.97;;;2.97;;
3571;SDS011;7958;53.024;12.970;2022-07-29T01:54:01;4.93;;;3.30;;
3571;SDS011;7958;53.024;12.970;2022-07-29T01:56:31;4.73;;;2.87;;
3571;SDS011;7958;53.024;12.970;2022-07-29T01:59:04;5.07;;;3.07;;
3571;SDS011;7958;53.024;12.970;2022-07-29T02:01:33;3.70;;;2.97;;
3571;SDS011;7958;53.024;12.970;2022-07-29T02:03:59;4.60;;;2.60;;
3571;SDS011;7958;53.024;12.970;2022-07-29T02:06:28;3.63;;;2.83;;
3571;SDS011;7958;53.024;12.970;2022-07-29T02:08:56;3.27;;;2.50;;
3571;SDS011;7958;53.024;12.970;2022-07-29T02:11:24;5.33;;;2.90;;
3571;SDS011;7958;53.024;12.970;2022-07-29T02:13:50;3.93;;;2.77;;
3571;SDS011;7958;53.024;12.970;2022-07-29T02:16:20;3.37;;;3.07;;
3571;SDS011;7958;53.024;12.970;2022-07-29T02:21:29;3.40;;;2.77;;
3571;SDS011;7958;53.024;12.970;2022-07-29T02:23:57;4.30;;;2.60;;
3571;SDS011;7958;53.024;12.970;2022-07-29T02:26:26;4.50;;;3.13;;
3571;SDS011;7958;53.024;12.970;2022-07-29T02:28:54;5.10;;;3.13;;
3571;SDS011;7958;53.024;12.970;2022-07-29T02:31:23;5.80;;;2.90;;
3571;SDS011;7958;53.024;12.970;2022-07-29T02:33:52;4.33;;;2.60;;
3571;SDS011;7958;53.024;12.970;2022-07-29T02:36:19;4.10;;;2.90;;
3571;SDS011;7958;53.024;12.970;2022-07-29T02:38:48;6.90;;;2.77;;
3571;SDS011;7958;53.024;12.970;2022-07-29T02:41:18;11.53;;;3.67;;
3571;SDS011;7958;53.024;12.970;2022-07-29T02:43:47;4.60;;;2.80;;
3571;SDS011;7958;53.024;12.970;2022-07-29T02:46:16;4.67;;;2.67;;
3571;SDS011;7958;53.024;12.970;2022-07-29T02:48:48;9.30;;;2.90;;
3571;SDS011;7958;53.024;12.970;2022-07-29T02:51:17;2.83;;;2.63;;
3571;SDS011;7958;53.024;12.970;2022-07-29T02:53:49;7.43;;;3.10;;
3571;SDS011;7958;53.024;12.970;2022-07-29T02:56:17;3.60;;;2.83;;
3571;SDS011;7958;53.024;12.970;2022-07-29T02:58:52;4.60;;;2.60;;
3571;SDS011;7958;53.024;12.970;2022-07-29T03:01:21;4.00;;;2.97;;
3571;SDS011;7958;53.024;12.970;2022-07-29T03:03:51;6.10;;;2.43;;
3571;SDS011;7958;53.024;12.970;2022-07-29T03:06:19;4.13;;;3.07;;
3571;SDS011;7958;53.024;12.970;2022-07-29T03:08:47;7.43;;;3.20;;
3571;SDS011;7958;53.024;12.970;2022-07-29T03:11:14;3.47;;;2.80;;
3571;SDS011;7958;53.024;12.970;2022-07-29T03:13:42;3.73;;;2.53;;
3571;SDS011;7958;53.024;12.970;2022-07-29T03:16:08;4.03;;;3.07;;
3571;SDS011;7958;53.024;12.970;2022-07-29T03:18:35;4.83;;;3.07;;
3571;SDS011;7958;53.024;12.970;2022-07-29T03:21:03;4.33;;;3.03;;
3571;SDS011;7958;53.024;12.970;2022-07-29T03:23:29;4.93;;;2.70;;
3571;SDS011;7958;53.024;12.970;2022-07-29T03:25:56;3.73;;;2.83;;
3571;SDS011;7958;53.024;12.970;2022-07-29T03:28:22;15.37;;;3.30;;
3571;SDS011;7958;53.024;12.970;2022-07-29T03:30:52;10.67;;;2.70;;
3571;SDS011;7958;53.024;12.970;2022-07-29T03:33:18;4.40;;;2.80;;
3571;SDS011;7958;53.024;12.970;2022-07-29T03:35:45;4.50;;;2.50;;
3571;SDS011;7958;53.024;12.970;2022-07-29T03:38:13;3.37;;;2.63;;
3571;SDS011;7958;53.024;12.970;2022-07-29T03:40:42;4.30;;;2.67;;
3571;SDS011;7958;53.024;12.970;2022-07-29T03:43:11;3.67;;;2.40;;
3571;SDS011;7958;53.024;12.970;2022-07-29T03:45:39;5.70;;;2.63;;
3571;SDS011;7958;53.024;12.970;2022-07-29T03:48:10;3.17;;;2.43;;
3571;SDS011;7958;53.024;12.970;2022-07-29T03:50:39;6.80;;;3.00;;
3571;SDS011;7958;53.024;12.970;2022-07-29T03:53:05;6.60;;;2.90;;
3571;SDS011;7958;53.024;12.970;2022-07-29T03:55:36;2.70;;;2.50;;
3571;SDS011;7958;53.024;12.970;2022-07-29T03:58:07;6.53;;;2.97;;
3571;SDS011;7958;53.024;12.970;2022-07-29T04:00:34;4.40;;;2.97;;
3571;SDS011;7958;53.024;12.970;2022-07-29T04:03:01;3.20;;;2.63;;
3571;SDS011;7958;53.024;12.970;2022-07-29T04:05:31;5.80;;;3.20;;
3571;SDS011;7958;53.024;12.970;2022-07-29T04:07:57;5.20;;;3.03;;
3571;SDS011;7958;53.024;12.970;2022-07-29T04:10:24;8.27;;;2.83;;
3571;SDS011;7958;53.024;12.970;2022-07-29T04:12:51;8.27;;;3.33;;
3571;SDS011;7958;53.024;12.970;2022-07-29T04:15:18;3.90;;;3.37;;
3571;SDS011;7958;53.024;12.970;2022-07-29T04:17:45;3.53;;;2.73;;
3571;SDS011;7958;53.024;12.970;2022-07-29T04:20:11;5.73;;;3.13;;
3571;SDS011;7958;53.024;12.970;2022-07-29T04:22:38;6.23;;;2.57;;
3571;SDS011;7958;53.024;12.970;2022-07-29T04:25:05;3.70;;;3.40;;
3571;SDS011;7958;53.024;12.970;2022-07-29T04:27:31;12.50;;;3.43;;
3571;SDS011;7958;53.024;12.970;2022-07-29T04:29:59;7.10;;;2.80;;
3571;SDS011;7958;53.024;12.970;2022-07-29T04:32:26;10.47;;;2.60;;
3571;SDS011;7958;53.024;12.970;2022-07-29T04:34:52;5.33;;;2.67;;
3571;SDS011;7958;53.024;12.970;2022-07-29T04:37:18;4.97;;;2.57;;
3571;SDS011;7958;53.024;12.970;2022-07-29T04:39:45;3.33;;;2.60;;
3571;SDS011;7958;53.024;12.970;2022-07-29T04:42:11;7.73;;;2.57;;
3571;SDS011;7958;53.024;12.970;2022-07-29T04:44:37;7.03;;;2.77;;
3571;SDS011;7958;53.024;12.970;2022-07-29T04:47:07;3.67;;;2.80;;
3571;SDS011;7958;53.024;12.970;2022-07-29T04:49:33;4.97;;;2.37;;
3571;SDS011;7958;53.024;12.970;2022-07-29T04:52:00;2.97;;;2.60;;
3571;SDS011;7958;53.024;12.970;2022-07-29T04:54:26;4.13;;;2.63;;
3571;SDS011;7958;53.024;12.970;2022-07-29T04:56:52;5.80;;;2.93;;
3571;SDS011;7958;53.024;12.970;2022-07-29T04:59:19;4.23;;;3.00;;
3571;SDS011;7958;53.024;12.970;2022-07-29T05:01:45;2.90;;;2.60;;
3571;SDS011;7958;53.024;12.970;2022-07-29T05:04:13;3.00;;;2.60;;
3571;SDS011;7958;53.024;12.970;2022-07-29T05:06:39;4.67;;;2.67;;
3571;SDS011;7958;53.024;12.970;2022-07-29T05:09:06;5.70;;;3.30;;
3571;SDS011;7958;53.024;12.970;2022-07-29T05:11:32;4.00;;;2.60;;
3571;SDS011;7958;53.024;12.970;2022-07-29T05:13:58;4.93;;;2.87;;
3571;SDS011;7958;53.024;12.970;2022-07-29T05:16:25;5.97;;;3.20;;
3571;SDS011;7958;53.024;12.970;2022-07-29T05:18:51;7.77;;;2.93;;
3571;SDS011;7958;53.024;12.970;2022-07-29T05:21:21;10.33;;;3.13;;
3571;SDS011;7958;53.024;12.970;2022-07-29T05:23:47;7.77;;;2.90;;
3571;SDS011;7958;53.024;12.970;2022-07-29T05:26:14;9.20;;;3.27;;
3571;SDS011;7958;53.024;12.970;2022-07-29T05:28:40;2.90;;;2.67;;
3571;SDS011;7958;53.024;12.970;2022-07-29T05:31:07;4.83;;;2.90;;
3571;SDS011;7958;53.024;12.970;2022-07-29T05:33:33;8.30;;;3.40;;
3571;SDS011;7958;53.024;12.970;2022-07-29T05:36:00;8.60;;;2.70;;
3571;SDS011;7958;53.024;12.970;2022-07-29T05:38:28;2.23;;;2.13;;
3571;SDS011;7958;53.024;12.970;2022-07-29T05:40:56;4.20;;;2.80;;
3571;SDS011;7958;53.024;12.970;2022-07-29T05:43:22;3.33;;;3.03;;
3571;SDS011;7958;53.024;12.970;2022-07-29T05:45:49;3.47;;;3.07;;
3571;SDS011;7958;53.024;12.970;2022-07-29T05:48:15;4.60;;;3.00;;
3571;SDS011;7958;53.024;12.970;2022-07-29T05:50:42;6.20;;;3.50;;
3571;SDS011;7958;53.024;12.970;2022-07-29T05:53:08;5.13;;;3.07;;
3571;SDS011;7958;53.024;12.970;2022-07-29T05:55:36;5.10;;;3.03;;
3571;SDS011;7958;53.024;12.970;2022-07-29T05:58:02;3.80;;;2.33;;
3571;SDS011;7958;53.024;12.970;2022-07-29T06:00:28;4.57;;;2.73;;
3571;SDS011;7958;53.024;12.970;2022-07-29T06:02:55;7.63;;;3.10;;
3571;SDS011;7958;53.024;12.970;2022-07-29T06:05:22;2.70;;;2.50;;
3571;SDS011;7958;53.024;12.970;2022-07-29T06:07:49;2.60;;;2.40;;
3571;SDS011;7958;53.024;12.970;2022-07-29T06:10:15;8.00;;;2.80;;
3571;SDS011;7958;53.024;12.970;2022-07-29T06:12:43;4.23;;;2.50;;
3571;SDS011;7958;53.024;12.970;2022-07-29T06:15:09;3.30;;;2.67;;
3571;SDS011;7958;53.024;12.970;2022-07-29T06:17:36;6.33;;;2.90;;
3571;SDS011;7958;53.024;12.970;2022-07-29T06:20:03;7.93;;;2.90;;
3571;SDS011;7958;53.024;12.970;2022-07-29T06:22:30;3.80;;;2.60;;
3571;SDS011;7958;53.024;12.970;2022-07-29T06:24:56;3.57;;;2.40;;
3571;SDS011;7958;53.024;12.970;2022-07-29T06:27:23;4.17;;;3.10;;
3571;SDS011;7958;53.024;12.970;2022-07-29T06:29:51;5.47;;;2.90;;
3571;SDS011;7958;53.024;12.970;2022-07-29T06:32:17;7.50;;;3.23;;
3571;SDS011;7958;53.024;12.970;2022-07-29T06:34:44;6.77;;;2.70;;
3571;SDS011;7958;53.024;12.970;2022-07-29T06:37:11;10.07;;;3.03;;
3571;SDS011;7958;53.024;12.970;2022-07-29T06:39:37;3.33;;;2.80;;
3571;SDS011;7958;53.024;12.970;2022-07-29T06:42:04;6.60;;;3.20;;
3571;SDS011;7958;53.024;12.970;2022-07-29T06:44:30;3.63;;;2.83;;
3571;SDS011;7958;53.024;12.970;2022-07-29T06:47:00;3.30;;;2.60;;
3571;SDS011;7958;53.024;12.970;2022-07-29T06:49:26;3.33;;;2.80;;
3571;SDS011;7958;53.024;12.970;2022-07-29T06:51:52;5.00;;;2.80;;
3571;SDS011;7958;53.024;12.970;2022-07-29T06:54:19;12.60;;;3.20;;
3571;SDS011;7958;53.024;12.970;2022-07-29T06:56:46;6.03;;;3.17;;
3571;SDS011;7958;53.024;12.970;2022-07-29T06:59:13;5.73;;;3.20;;
3571;SDS011;7958;53.024;12.970;2022-07-29T07:01:40;5.83;;;3.03;;
3571;SDS011;7958;53.024;12.970;2022-07-29T07:04:08;5.30;;;3.03;;
3571;SDS011;7958;53.024;12.970;2022-07-29T07:06:35;6.37;;;3.20;;
3571;SDS011;7958;53.024;12.970;2022-07-29T07:09:02;3.93;;;2.40;;
3571;SDS011;7958;53.024;12.970;2022-07-29T07:11:29;5.13;;;3.27;;
3571;SDS011;7958;53.024;12.970;2022-07-29T07:13:55;41.03;;;10.83;;
3571;SDS011;7958;53.024;12.970;2022-07-29T07:16:22;6.40;;;3.07;;
3571;SDS011;7958;53.024;12.970;2022-07-29T07:18:48;5.80;;;2.77;;
3571;SDS011;7958;53.024;12.970;2022-07-29T07:21:17;4.90;;;2.60;;
3571;SDS011;7958;53.024;12.970;2022-07-29T07:23:43;3.80;;;2.90;;
3571;SDS011;7958;53.024;12.970;2022-07-29T07:26:10;5.77;;;2.53;;
3571;SDS011;7958;53.024;12.970;2022-07-29T07:28:36;4.20;;;2.60;;
3571;SDS011;7958;53.024;12.970;2022-07-29T07:31:02;3.30;;;2.40;;
3571;SDS011;7958;53.024;12.970;2022-07-29T07:33:29;4.93;;;2.60;;
3571;SDS011;7958;53.024;12.970;2022-07-29T07:35:55;4.53;;;3.03;;
3571;SDS011;7958;53.024;12.970;2022-07-29T07:38:23;5.53;;;2.80;;
3571;SDS011;7958;53.024;12.970;2022-07-29T07:40:49;4.83;;;2.50;;
3571;SDS011;7958;53.024;12.970;2022-07-29T07:43:16;3.83;;;2.47;;
3571;SDS011;7958;53.024;12.970;2022-07-29T07:45:42;6.90;;;3.03;;
3571;SDS011;7958;53.024;12.970;2022-07-29T07:48:08;5.80;;;2.60;;
3571;SDS011;7958;53.024;12.970;2022-07-29T07:50:39;6.73;;;2.90;;
3571;SDS011;7958;53.024;12.970;2022-07-29T07:53:06;5.47;;;2.53;;
3571;SDS011;7958;53.024;12.970;2022-07-29T07:55:33;3.57;;;2.83;;
3571;SDS011;7958;53.024;12.970;2022-07-29T07:58:06;5.10;;;2.30;;
3571;SDS011;7958;53.024;12.970;2022-07-29T08:00:32;5.30;;;2.30;;
3571;SDS011;7958;53.024;12.970;2022-07-29T08:02:59;3.60;;;2.30;;
3571;SDS011;7958;53.024;12.970;2022-07-29T08:05:25;2.80;;;1.90;;
3571;SDS011;7958;53.024;12.970;2022-07-29T08:07:51;3.47;;;2.07;;
3571;SDS011;7958;53.024;12.970;2022-07-29T08:10:18;3.00;;;2.30;;
3571;SDS011;7958;53.024;12.970;2022-07-29T08:13:11;2.27;;;2.03;;
3571;SDS011;7958;53.024;12.970;2022-07-29T08:15:38;12.33;;;2.60;;
3571;SDS011;7958;53.024;12.970;2022-07-29T08:18:05;3.37;;;2.40;;
3571;SDS011;7958;53.024;12.970;2022-07-29T08:20:32;5.53;;;3.00;;
3571;SDS011;7958;53.024;12.970;2022-07-29T08:23:00;4.23;;;2.43;;
3571;SDS011;7958;53.024;12.970;2022-07-29T08:25:26;4.90;;;2.10;;
3571;SDS011;7958;53.024;12.970;2022-07-29T08:27:53;11.23;;;2.43;;
3571;SDS011;7958;53.024;12.970;2022-07-29T08:30:21;7.33;;;2.30;;
3571;SDS011;7958;53.024;12.970;2022-07-29T08:32:49;2.80;;;1.90;;
3571;SDS011;7958;53.024;12.970;2022-07-29T08:35:18;5.33;;;2.10;;
3571;SDS011;7958;53.024;12.970;2022-07-29T08:37:44;5.10;;;2.10;;
3571;SDS011;7958;53.024;12.970;2022-07-29T08:40:11;5.30;;;2.80;;
3571;SDS011;7958;53.024;12.970;2022-07-29T08:42:39;3.67;;;2.10;;
3571;SDS011;7958;53.024;12.970;2022-07-29T08:45:06;8.10;;;2.00;;
3571;SDS011;7958;53.024;12.970;2022-07-29T08:47:35;6.10;;;2.17;;
3571;SDS011;7958;53.024;12.970;2022-07-29T08:50:04;2.70;;;1.80;;
3571;SDS011;7958;53.024;12.970;2022-07-29T08:52:33;10.90;;;2.17;;
3571;SDS011;7958;53.024;12.970;2022-07-29T08:55:03;2.40;;;2.17;;
3571;SDS011;7958;53.024;12.970;2022-07-29T08:57:31;3.33;;;1.90;;
3571;SDS011;7958;53.024;12.970;2022-07-29T08:59:59;4.20;;;2.30;;
3571;SDS011;7958;53.024;12.970;2022-07-29T09:02:27;3.23;;;1.80;;
3571;SDS011;7958;53.024;12.970;2022-07-29T09:04:56;7.13;;;2.20;;
3571;SDS011;7958;53.024;12.970;2022-07-29T09:07:23;2.20;;;1.90;;
3571;SDS011;7958;53.024;12.970;2022-07-29T09:09:50;3.40;;;2.40;;
3571;SDS011;7958;53.024;12.970;2022-07-29T09:12:16;4.87;;;1.97;;
3571;SDS011;7958;53.024;12.970;2022-07-29T09:14:43;3.00;;;2.33;;
3571;SDS011;7958;53.024;12.970;2022-07-29T09:17:09;2.73;;;2.10;;
3571;SDS011;7958;53.024;12.970;2022-07-29T09:19:36;8.80;;;1.97;;
3571;SDS011;7958;53.024;12.970;2022-07-29T09:22:05;3.73;;;1.73;;
3571;SDS011;7958;53.024;12.970;2022-07-29T09:24:38;7.30;;;2.40;;
3571;SDS011;7958;53.024;12.970;2022-07-29T09:27:08;3.77;;;1.90;;
3571;SDS011;7958;53.024;12.970;2022-07-29T09:29:35;3.40;;;2.30;;
3571;SDS011;7958;53.024;12.970;2022-07-29T09:32:02;6.17;;;2.10;;
3571;SDS011;7958;53.024;12.970;2022-07-29T09:34:32;4.50;;;1.80;;
3571;SDS011;7958;53.024;12.970;2022-07-29T09:36:58;2.10;;;1.90;;
3571;SDS011;7958;53.024;12.970;2022-07-29T09:39:30;5.70;;;1.73;;
3571;SDS011;7958;53.024;12.970;2022-07-29T09:41:58;3.00;;;2.03;;
3571;SDS011;7958;53.024;12.970;2022-07-29T09:44:26;7.90;;;2.03;;
3571;SDS011;7958;53.024;12.970;2022-07-29T09:46:56;4.03;;;1.97;;
3571;SDS011;7958;53.024;12.970;2022-07-29T09:49:27;3.43;;;2.10;;
3571;SDS011;7958;53.024;12.970;2022-07-29T09:52:00;4.30;;;2.07;;
3571;SDS011;7958;53.024;12.970;2022-07-29T09:54:31;2.90;;;1.83;;
3571;SDS011;7958;53.024;12.970;2022-07-29T09:57:01;7.43;;;1.80;;
3571;SDS011;7958;53.024;12.970;2022-07-29T09:59:28;1.93;;;1.70;;
3571;SDS011;7958;53.024;12.970;2022-07-29T10:01:55;3.50;;;1.60;;
3571;SDS011;7958;53.024;12.970;2022-07-29T10:04:21;4.40;;;2.17;;
3571;SDS011;7958;53.024;12.970;2022-07-29T10:06:58;1.97;;;1.63;;
3571;SDS011;7958;53.024;12.970;2022-07-29T10:09:25;7.40;;;1.47;;
3571;SDS011;7958;53.024;12.970;2022-07-29T10:12:07;3.50;;;1.60;;
3571;SDS011;7958;53.024;12.970;2022-07-29T10:14:36;1.93;;;1.47;;
3571;SDS011;7958;53.024;12.970;2022-07-29T10:17:03;3.70;;;1.70;;
3571;SDS011;7958;53.024;12.970;2022-07-29T10:19:31;4.37;;;2.10;;
3571;SDS011;7958;53.024;12.970;2022-07-29T10:21:59;2.23;;;1.60;;
3571;SDS011;7958;53.024;12.970;2022-07-29T10:24:26;6.73;;;1.97;;
3571;SDS011;7958;53.024;12.970;2022-07-29T10:26:53;2.47;;;1.57;;
3571;SDS011;7958;53.024;12.970;2022-07-29T10:29:21;7.23;;;1.90;;
3571;SDS011;7958;53.024;12.970;2022-07-29T10:31:49;2.30;;;1.60;;
3571;SDS011;7958;53.024;12.970;2022-07-29T10:34:27;2.33;;;1.93;;
3571;SDS011;7958;53.024;12.970;2022-07-29T10:37:02;3.63;;;1.70;;
3571;SDS011;7958;53.024;12.970;2022-07-29T10:39:36;8.10;;;1.73;;
3571;SDS011;7958;53.024;12.970;2022-07-29T10:42:09;2.83;;;1.83;;
3571;SDS011;7958;53.024;12.970;2022-07-29T10:44:41;4.70;;;1.50;;
3571;SDS011;7958;53.024;12.970;2022-07-29T10:47:08;2.17;;;1.50;;
3571;SDS011;7958;53.024;12.970;2022-07-29T10:49:34;3.07;;;1.67;;
3571;SDS011;7958;53.024;12.970;2022-07-29T10:52:02;2.97;;;1.70;;
3571;SDS011;7958;53.024;12.970;2022-07-29T10:54:37;4.73;;;1.67;;
3571;SDS011;7958;53.024;12.970;2022-07-29T10:57:17;3.07;;;1.73;;
3571;SDS011;7958;53.024;12.970;2022-07-29T10:59:47;1.60;;;1.50;;
3571;SDS011;7958;53.024;12.970;2022-07-29T11:05:11;1.43;;;1.33;;
3571;SDS011;7958;53.024;12.970;2022-07-29T11:07:39;3.60;;;1.63;;
3571;SDS011;7958;53.024;12.970;2022-07-29T11:10:19;3.37;;;1.40;;
3571;SDS011;7958;53.024;12.970;2022-07-29T11:12:48;3.17;;;1.83;;
3571;SDS011;7958;53.024;12.970;2022-07-29T11:15:20;2.07;;;1.60;;
3571;SDS011;7958;53.024;12.970;2022-07-29T11:18:04;2.50;;;1.70;;
3571;SDS011;7958;53.024;12.970;2022-07-29T11:20:35;4.60;;;1.73;;
3571;SDS011;7958;53.024;12.970;2022-07-29T11:23:23;8.13;;;1.90;;
3571;SDS011;7958;53.024;12.970;2022-07-29T11:28:52;2.63;;;1.70;;
3571;SDS011;7958;53.024;12.970;2022-07-29T11:31:33;3.07;;;1.80;;
3571;SDS011;7958;53.024;12.970;2022-07-29T11:34:21;4.33;;;1.80;;
3571;SDS011;7958;53.024;12.970;2022-07-29T11:39:43;4.50;;;1.83;;
3571;SDS011;7958;53.024;12.970;2022-07-29T11:45:06;2.53;;;1.50;;
3571;SDS011;7958;53.024;12.970;2022-07-29T11:47:35;4.30;;;1.60;;
3571;SDS011;7958;53.024;12.970;2022-07-29T11:50:04;2.53;;;1.80;;
3571;SDS011;7958;53.024;12.970;2022-07-29T11:52:36;3.10;;;1.80;;
3571;SDS011;7958;53.024;12.970;2022-07-29T11:55:08;10.50;;;1.70;;
3571;SDS011;7958;53.024;12.970;2022-07-29T11:57:36;5.40;;;1.47;;
3571;SDS011;7958;53.024;12.970;2022-07-29T12:00:03;1.50;;;1.40;;
3571;SDS011;7958;53.024;12.970;2022-07-29T12:02:40;4.50;;;1.70;;
3571;SDS011;7958;53.024;12.970;2022-07-29T12:05:08;5.07;;;1.73;;
3571;SDS011;7958;53.024;12.970;2022-07-29T12:07:35;7.20;;;1.70;;
3571;SDS011;7958;53.024;12.970;2022-07-29T12:10:03;2.23;;;1.63;;
3571;SDS011;7958;53.024;12.970;2022-07-29T12:12:30;1.90;;;1.40;;
3571;SDS011;7958;53.024;12.970;2022-07-29T12:14:56;2.30;;;1.60;;
3571;SDS011;7958;53.024;12.970;2022-07-29T12:17:26;3.73;;;1.70;;
3571;SDS011;7958;53.024;12.970;2022-07-29T12:19:55;3.27;;;1.80;;
3571;SDS011;7958;53.024;12.970;2022-07-29T12:22:26;3.10;;;1.70;;
3571;SDS011;7958;53.024;12.970;2022-07-29T12:24:53;2.03;;;1.83;;
3571;SDS011;7958;53.024;12.970;2022-07-29T12:27:20;6.83;;;1.93;;
3571;SDS011;7958;53.024;12.970;2022-07-29T12:29:54;2.80;;;1.90;;
3571;SDS011;7958;53.024;12.970;2022-07-29T12:32:22;1.83;;;1.73;;
3571;SDS011;7958;53.024;12.970;2022-07-29T12:34:48;2.20;;;1.67;;
3571;SDS011;7958;53.024;12.970;2022-07-29T12:37:16;2.30;;;1.70;;
3571;SDS011;7958;53.024;12.970;2022-07-29T12:39:43;1.80;;;1.70;;
3571;SDS011;7958;53.024;12.970;2022-07-29T12:42:11;2.90;;;2.17;;
3571;SDS011;7958;53.024;12.970;2022-07-29T12:44:46;4.47;;;1.70;;
3571;SDS011;7958;53.024;12.970;2022-07-29T12:47:14;2.30;;;1.50;;
3571;SDS011;7958;53.024;12.970;2022-07-29T12:49:40;2.43;;;1.60;;
3571;SDS011;7958;53.024;12.970;2022-07-29T12:52:24;3.20;;;1.80;;
3571;SDS011;7958;53.024;12.970;2022-07-29T12:54:52;3.87;;;1.47;;
3571;SDS011;7958;53.024;12.970;2022-07-29T12:57:18;9.27;;;1.97;;
3571;SDS011;7958;53.024;12.970;2022-07-29T12:59:45;2.70;;;1.70;;
3571;SDS011;7958;53.024;12.970;2022-07-29T13:02:20;1.97;;;1.60;;
3571;SDS011;7958;53.024;12.970;2022-07-29T13:04:54;2.10;;;1.90;;
3571;SDS011;7958;53.024;12.970;2022-07-29T13:07:24;3.80;;;1.77;;
3571;SDS011;7958;53.024;12.970;2022-07-29T13:09:52;3.70;;;1.67;;
3571;SDS011;7958;53.024;12.970;2022-07-29T13:12:19;3.73;;;1.73;;
3571;SDS011;7958;53.024;12.970;2022-07-29T13:14:46;1.87;;;1.70;;
3571;SDS011;7958;53.024;12.970;2022-07-29T13:17:14;3.13;;;2.00;;
3571;SDS011;7958;53.024;12.970;2022-07-29T13:19:42;2.50;;;1.70;;
3571;SDS011;7958;53.024;12.970;2022-07-29T13:22:10;2.60;;;1.40;;
3571;SDS011;7958;53.024;12.970;2022-07-29T13:24:49;1.77;;;1.67;;
3571;SDS011;7958;53.024;12.970;2022-07-29T13:27:16;2.90;;;1.70;;
3571;SDS011;7958;53.024;12.970;2022-07-29T13:29:43;1.50;;;1.40;;
3571;SDS011;7958;53.024;12.970;2022-07-29T13:32:09;2.80;;;1.90;;
3571;SDS011;7958;53.024;12.970;2022-07-29T13:34:36;1.97;;;1.73;;
3571;SDS011;7958;53.024;12.970;2022-07-29T13:37:03;6.30;;;1.60;;
3571;SDS011;7958;53.024;12.970;2022-07-29T13:39:29;2.10;;;1.90;;
3571;SDS011;7958;53.024;12.970;2022-07-29T13:41:57;3.50;;;1.77;;
3571;SDS011;7958;53.024;12.970;2022-07-29T13:44:23;4.20;;;2.07;;
3571;SDS011;7958;53.024;12.970;2022-07-29T13:46:50;6.20;;;2.07;;
3571;SDS011;7958;53.024;12.970;2022-07-29T13:49:16;1.93;;;1.70;;
3571;SDS011;7958;53.024;12.970;2022-07-29T13:51:43;2.23;;;1.50;;
3571;SDS011;7958;53.024;12.970;2022-07-29T13:54:09;4.30;;;2.13;;
3571;SDS011;7958;53.024;12.970;2022-07-29T13:56:35;3.43;;;1.73;;
3571;SDS011;7958;53.024;12.970;2022-07-29T13:59:03;3.63;;;1.80;;
3571;SDS011;7958;53.024;12.970;2022-07-29T14:01:30;2.10;;;1.80;;
3571;SDS011;7958;53.024;12.970;2022-07-29T14:03:56;3.73;;;1.90;;
3571;SDS011;7958;53.024;12.970;2022-07-29T14:06:23;2.03;;;1.93;;
3571;SDS011;7958;53.024;12.970;2022-07-29T14:08:49;1.80;;;1.43;;
3571;SDS011;7958;53.024;12.970;2022-07-29T14:11:16;2.87;;;1.57;;
3571;SDS011;7958;53.024;12.970;2022-07-29T14:13:42;6.00;;;1.80;;
3571;SDS011;7958;53.024;12.970;2022-07-29T14:16:10;1.93;;;1.60;;
3571;SDS011;7958;53.024;12.970;2022-07-29T14:18:36;4.47;;;1.90;;
3571;SDS011;7958;53.024;12.970;2022-07-29T14:21:03;3.40;;;1.87;;
3571;SDS011;7958;53.024;12.970;2022-07-29T14:23:29;5.00;;;1.63;;
3571;SDS011;7958;53.024;12.970;2022-07-29T14:25:56;4.10;;;1.53;;
3571;SDS011;7958;53.024;12.970;2022-07-29T14:28:22;3.00;;;1.50;;
3571;SDS011;7958;53.024;12.970;2022-07-29T14:30:51;3.73;;;1.83;;
3571;SDS011;7958;53.024;12.970;2022-07-29T14:33:19;8.43;;;1.97;;
3571;SDS011;7958;53.024;12.970;2022-07-29T14:35:45;3.23;;;2.20;;
3571;SDS011;7958;53.024;12.970;2022-07-29T14:38:12;3.33;;;1.83;;
3571;SDS011;7958;53.024;12.970;2022-07-29T14:40:38;2.73;;;1.63;;
3571;SDS011;7958;53.024;12.970;2022-07-29T14:43:04;7.13;;;3.03;;
3571;SDS011;7958;53.024;12.970;2022-07-29T14:45:31;7.30;;;2.03;;
3571;SDS011;7958;53.024;12.970;2022-07-29T14:47:57;9.53;;;1.77;;
3571;SDS011;7958;53.024;12.970;2022-07-29T14:50:26;5.30;;;1.73;;
3571;SDS011;7958;53.024;12.970;2022-07-29T14:52:52;1.67;;;1.57;;
3571;SDS011;7958;53.024;12.970;2022-07-29T14:55:19;2.70;;;1.87;;
3571;SDS011;7958;53.024;12.970;2022-07-29T14:57:46;3.90;;;2.00;;
3571;SDS011;7958;53.024;12.970;2022-07-29T15:00:13;4.47;;;1.90;;
3571;SDS011;7958;53.024;12.970;2022-07-29T15:02:40;3.13;;;2.00;;
3571;SDS011;7958;53.024;12.970;2022-07-29T15:05:06;7.00;;;1.70;;
3571;SDS011;7958;53.024;12.970;2022-07-29T15:07:34;2.20;;;2.00;;
3571;SDS011;7958;53.024;12.970;2022-07-29T15:10:01;2.03;;;1.67;;
3571;SDS011;7958;53.024;12.970;2022-07-29T15:12:29;6.40;;;2.50;;
3571;SDS011;7958;53.024;12.970;2022-07-29T15:14:56;1.80;;;1.70;;
3571;SDS011;7958;53.024;12.970;2022-07-29T15:17:22;2.17;;;1.97;;
3571;SDS011;7958;53.024;12.970;2022-07-29T15:19:49;2.33;;;2.13;;
3571;SDS011;7958;53.024;12.970;2022-07-29T15:22:15;2.73;;;1.83;;